createdAt,value
2022-11-17T00:02:21.923Z,960.02
2022-11-17T00:07:21.875Z,959.91
2022-11-17T00:12:22.887Z,959.92
2022-11-17T00:17:21.659Z,959.86
2022-11-17T00:22:21.565Z,959.98
2022-11-17T00:27:21.520Z,960.04
2022-11-17T00:32:21.427Z,959.94
2022-11-17T00:37:21.374Z,959.96
2022-11-17T00:42:21.290Z,959.89
2022-11-17T00:47:21.233Z,959.86
2022-11-17T00:52:21.172Z,959.81
2022-11-17T00:57:21.135Z,959.77
2022-11-17T01:02:21.018Z,959.75
2022-11-17T01:07:21.026Z,959.71
2022-11-17T01:12:20.924Z,959.72
2022-11-17T01:17:20.827Z,959.62
2022-11-17T01:22:20.779Z,959.52
2022-11-17T01:27:20.680Z,959.46
2022-11-17T01:32:20.629Z,959.40
2022-11-17T01:37:20.576Z,959.37
2022-11-17T01:42:20.481Z,959.32
2022-11-17T01:47:20.422Z,959.29
2022-11-17T01:52:20.360Z,959.38
2022-11-17T01:57:20.284Z,959.27
2022-11-17T02:02:20.236Z,959.28
2022-11-17T02:07:20.207Z,959.29
2022-11-17T02:12:20.097Z,959.23
2022-11-17T02:17:20.010Z,959.18
2022-11-17T02:22:19.936Z,959.14
2022-11-17T02:27:19.879Z,959.08
2022-11-17T02:32:19.836Z,959.06
2022-11-17T02:37:19.714Z,959.06
2022-11-17T02:42:19.680Z,959.03
2022-11-17T02:47:19.629Z,959.04
2022-11-17T02:52:19.543Z,958.95
2022-11-17T02:57:19.479Z,959.02
2022-11-17T03:02:19.435Z,959.00
2022-11-17T03:07:19.466Z,958.92
2022-11-17T03:12:19.299Z,958.83
2022-11-17T03:17:19.194Z,958.86
2022-11-17T03:22:19.197Z,958.80
2022-11-17T03:27:19.061Z,958.75
2022-11-17T03:32:19.059Z,958.74
2022-11-17T03:37:18.962Z,958.69
2022-11-17T03:42:18.860Z,958.66
2022-11-17T03:47:18.804Z,958.65
2022-11-17T03:52:18.741Z,958.57
2022-11-17T03:57:18.689Z,958.53
2022-11-17T04:02:18.651Z,958.48
2022-11-17T04:07:18.625Z,958.45
2022-11-17T04:12:18.547Z,958.43
2022-11-17T04:17:18.444Z,958.29
2022-11-17T04:22:18.399Z,958.25
2022-11-17T04:27:18.321Z,958.14
2022-11-17T04:32:18.248Z,957.99
2022-11-17T04:37:18.175Z,957.89
2022-11-17T04:42:18.140Z,957.86
2022-11-17T04:47:18.063Z,957.78
2022-11-17T04:52:18.021Z,957.70
2022-11-17T04:57:17.961Z,957.68
2022-11-17T05:02:17.964Z,957.72
2022-11-17T05:07:17.906Z,957.74
2022-11-17T05:12:17.761Z,957.79
2022-11-17T05:17:17.724Z,957.84
2022-11-17T05:22:17.632Z,957.85
2022-11-17T05:27:17.564Z,957.71
2022-11-17T05:32:17.509Z,957.53
2022-11-17T05:37:17.481Z,957.69
2022-11-17T05:42:17.408Z,957.72
2022-11-17T05:47:17.314Z,957.69
2022-11-17T05:52:17.276Z,957.52
2022-11-17T05:57:17.221Z,957.50
2022-11-17T06:02:17.155Z,957.60
2022-11-17T06:07:17.101Z,957.62
2022-11-17T06:12:17.382Z,957.69
2022-11-17T06:17:21.921Z,957.65
2022-11-17T06:22:17.970Z,957.62
2022-11-17T06:27:16.828Z,957.78
2022-11-17T06:32:16.796Z,957.82
2022-11-17T06:37:16.748Z,957.60
2022-11-17T06:42:16.634Z,957.60
2022-11-17T06:47:16.550Z,957.75
2022-11-17T06:52:16.492Z,957.72
2022-11-17T06:57:16.466Z,957.67
2022-11-17T07:02:16.366Z,957.79
2022-11-17T07:07:16.315Z,957.69
2022-11-17T07:12:16.218Z,957.72
2022-11-17T07:17:16.214Z,957.70
2022-11-17T07:22:16.114Z,957.77
2022-11-17T07:27:16.056Z,957.85
2022-11-17T07:32:15.995Z,957.90
2022-11-17T07:37:15.932Z,957.81
2022-11-17T07:42:15.870Z,957.81
2022-11-17T07:47:15.811Z,957.84
2022-11-17T07:52:15.696Z,958.04
2022-11-17T07:57:15.635Z,958.22
2022-11-17T08:02:15.558Z,958.24
2022-11-17T08:07:15.558Z,958.17
2022-11-17T08:12:15.438Z,958.21
2022-11-17T08:17:15.498Z,958.29
2022-11-17T08:22:15.321Z,958.35
2022-11-17T08:27:15.239Z,958.28
2022-11-17T08:32:15.165Z,958.40
2022-11-17T08:37:15.096Z,958.34
2022-11-17T08:42:15.020Z,958.27
2022-11-17T08:47:14.985Z,958.15
2022-11-17T08:52:14.881Z,958.25
2022-11-17T08:57:14.936Z,958.43
2022-11-17T09:02:14.791Z,958.31
2022-11-17T09:07:14.764Z,958.33
2022-11-17T09:12:14.615Z,958.11
2022-11-17T09:17:14.718Z,958.02
2022-11-17T09:22:14.510Z,958.10
2022-11-17T09:27:14.421Z,958.21
2022-11-17T09:32:14.371Z,958.25
2022-11-17T09:37:14.297Z,958.16
2022-11-17T09:42:14.210Z,958.21
2022-11-17T09:47:14.161Z,958.11
2022-11-17T09:52:14.139Z,958.06
2022-11-17T09:57:14.052Z,957.92
2022-11-17T10:02:13.998Z,957.95
2022-11-17T10:07:13.951Z,957.81
2022-11-17T10:12:13.814Z,957.67
2022-11-17T10:17:13.740Z,957.55
2022-11-17T10:22:13.690Z,957.44
2022-11-17T10:27:13.632Z,957.58
2022-11-17T10:32:13.553Z,957.61
2022-11-17T10:37:13.543Z,957.67
2022-11-17T10:42:13.443Z,957.64
2022-11-17T10:47:13.382Z,957.55
2022-11-17T10:52:13.324Z,957.59
2022-11-17T10:57:13.242Z,957.45
2022-11-17T11:02:13.184Z,957.58
2022-11-17T11:07:13.188Z,957.51
2022-11-17T11:12:13.089Z,957.56
2022-11-17T11:17:13.041Z,957.68
2022-11-17T11:22:16.883Z,957.15
2022-11-17T11:27:13.874Z,957.45
2022-11-17T11:32:12.806Z,957.51
2022-11-17T11:37:12.764Z,957.51
2022-11-17T11:42:12.724Z,957.65
2022-11-17T11:47:12.651Z,957.59
2022-11-17T11:52:12.645Z,957.47
2022-11-17T11:57:12.609Z,957.25
2022-11-17T12:02:12.545Z,957.35
2022-11-17T12:07:12.878Z,957.26
2022-11-17T12:12:12.438Z,957.18
2022-11-17T12:17:12.414Z,957.22
2022-11-17T12:22:12.179Z,957.30
2022-11-17T12:27:12.161Z,957.43
2022-11-17T12:32:12.065Z,957.44
2022-11-17T12:37:12.118Z,957.43
2022-11-17T12:42:12.100Z,957.32
2022-11-17T12:47:11.934Z,957.18
2022-11-17T12:52:11.798Z,957.07
2022-11-17T12:57:11.760Z,957.12
2022-11-17T13:02:11.694Z,957.14
2022-11-17T13:07:11.674Z,957.19
2022-11-17T13:12:11.570Z,957.09
2022-11-17T13:17:11.568Z,957.09
2022-11-17T13:22:11.452Z,957.02
2022-11-17T13:27:11.379Z,957.07
2022-11-17T13:32:11.340Z,957.27
2022-11-17T13:37:11.255Z,957.40
2022-11-17T13:42:11.185Z,957.40
2022-11-17T13:47:11.957Z,957.27
2022-11-17T13:52:11.101Z,957.20
2022-11-17T13:57:11.035Z,957.23
2022-11-17T14:02:11.093Z,957.30
2022-11-17T14:07:11.006Z,957.30
2022-11-17T14:12:10.880Z,957.28
2022-11-17T14:17:10.866Z,957.29
2022-11-17T14:22:15.863Z,957.35
2022-11-17T14:27:11.672Z,957.38
2022-11-17T14:32:10.588Z,957.35
2022-11-17T14:37:11.652Z,957.49
2022-11-17T14:42:10.471Z,957.53
2022-11-17T14:47:10.395Z,957.55
2022-11-17T14:52:10.308Z,957.46
2022-11-17T14:57:24.604Z,957.40
2022-11-17T15:02:10.232Z,957.41
2022-11-17T15:07:10.245Z,957.48
2022-11-17T15:12:10.090Z,957.42
2022-11-17T15:17:14.430Z,957.32
2022-11-17T15:22:09.950Z,957.47
2022-11-17T15:27:09.899Z,957.38
2022-11-17T15:32:09.840Z,957.43
2022-11-17T15:37:09.948Z,957.62
2022-11-17T15:42:09.716Z,957.65
2022-11-17T15:47:09.640Z,957.56
2022-11-17T15:52:09.608Z,957.43
2022-11-17T15:57:09.508Z,957.34
2022-11-17T16:02:09.454Z,957.36
2022-11-17T16:07:09.459Z,957.33
2022-11-17T16:12:09.351Z,957.23
2022-11-17T16:17:09.262Z,957.26
2022-11-17T16:22:09.210Z,957.26
2022-11-17T16:27:09.956Z,957.38
2022-11-17T16:32:09.050Z,957.53
2022-11-17T16:37:09.001Z,957.59
2022-11-17T16:42:08.930Z,957.75
2022-11-17T16:47:08.862Z,957.82
2022-11-17T16:52:08.799Z,957.69
2022-11-17T16:57:08.744Z,957.74
2022-11-17T17:02:08.693Z,957.66
2022-11-17T17:07:08.659Z,957.57
2022-11-17T17:12:08.553Z,957.57
2022-11-17T17:17:08.506Z,957.48
2022-11-17T17:22:08.461Z,957.52
2022-11-17T17:27:08.371Z,957.47
2022-11-17T17:32:08.302Z,957.42
2022-11-17T17:37:08.243Z,957.52
2022-11-17T17:42:08.204Z,957.50
2022-11-17T17:47:08.146Z,957.43
2022-11-17T17:52:13.645Z,957.46
2022-11-17T17:57:09.009Z,957.50
2022-11-17T18:02:07.954Z,957.41
2022-11-17T18:07:07.979Z,957.51
2022-11-17T18:12:07.827Z,957.42
2022-11-17T18:17:07.748Z,957.49
2022-11-17T18:22:07.668Z,957.43
2022-11-17T18:27:07.620Z,957.35
2022-11-17T18:32:07.558Z,957.23
2022-11-17T18:37:07.533Z,957.33
2022-11-17T18:42:07.415Z,957.33
2022-11-17T18:47:07.367Z,957.41
2022-11-17T18:52:07.307Z,957.40
2022-11-17T18:57:07.229Z,957.44
2022-11-17T19:02:07.127Z,957.53
2022-11-17T19:07:07.140Z,957.62
2022-11-17T19:12:07.001Z,957.66
2022-11-17T19:17:06.932Z,957.55
2022-11-17T19:22:06.862Z,957.49
2022-11-17T19:27:06.811Z,957.45
2022-11-17T19:32:06.760Z,957.62
2022-11-17T19:37:06.673Z,957.70
2022-11-17T19:42:06.614Z,957.69
2022-11-17T19:47:06.552Z,957.69
2022-11-17T19:52:06.472Z,957.70
2022-11-17T19:59:43.783Z,957.68
2022-11-17T20:04:37.109Z,957.72
2022-11-17T20:09:37.041Z,957.61
2022-11-17T20:14:36.976Z,957.56
2022-11-17T20:19:36.937Z,957.49
2022-11-17T20:24:36.891Z,957.42
2022-11-17T20:29:36.824Z,957.48
2022-11-17T20:34:36.907Z,957.53
2022-11-17T20:39:36.716Z,957.69
2022-11-17T20:44:36.638Z,957.73
2022-11-17T20:49:36.567Z,957.65
2022-11-17T20:54:37.423Z,957.61
2022-11-17T20:59:36.495Z,957.63
2022-11-17T21:04:36.449Z,957.68
2022-11-17T21:09:36.251Z,957.68
2022-11-17T21:14:36.200Z,957.59
2022-11-17T21:19:39.012Z,957.54
2022-11-17T21:24:36.052Z,957.37
2022-11-17T21:29:35.992Z,957.39
2022-11-17T21:34:35.921Z,957.41
2022-11-17T21:39:35.841Z,957.38
2022-11-17T21:44:35.793Z,957.41
2022-11-17T21:49:35.722Z,957.50
2022-11-17T21:54:35.661Z,957.44
2022-11-17T21:59:35.634Z,957.45
2022-11-17T22:04:35.555Z,957.37
2022-11-17T22:09:35.524Z,957.31
2022-11-17T22:14:35.413Z,957.36
2022-11-17T22:19:35.355Z,957.45
2022-11-17T22:24:35.377Z,957.49
2022-11-17T22:29:35.316Z,957.52
2022-11-17T22:34:35.162Z,957.60
2022-11-17T22:39:35.103Z,957.87
2022-11-17T22:44:35.033Z,958.11
2022-11-17T22:49:34.966Z,958.22
2022-11-17T22:54:34.895Z,958.22
2022-11-17T22:59:34.837Z,958.24
2022-11-17T23:04:34.767Z,958.30
2022-11-17T23:09:34.701Z,958.36
2022-11-17T23:14:34.657Z,958.37
2022-11-17T23:19:34.573Z,958.41
2022-11-17T23:24:34.509Z,958.45
2022-11-17T23:29:34.469Z,958.40
2022-11-17T23:34:34.380Z,958.36
2022-11-17T23:39:34.315Z,958.31
2022-11-17T23:44:34.218Z,958.35
2022-11-17T23:49:34.179Z,958.25
2022-11-17T23:54:34.145Z,958.11
2022-11-17T23:59:34.080Z,957.95
